Time;durP1;ratioP1;P1;durP2;ratioP2;P2;SDS_P1;SDS_P2;PMS_P1;PMS_P2;Temp;Humidity;BMP_temperature;BMP_pressure;BME280_temperature;BME280_humidity;BME280_pressure;Samples;Min_cycle;Max_cycle;Signal;HPM_P1;HPM_P2
2021/09/29 00:02:17;;;;;;;9.15;7.60;;;14.10;99.90;;;;;;5055940;28;20036;-73
2021/09/29 00:04:42;;;;;;;8.35;6.70;;;14.20;99.90;;;;;;5056146;28;20056;-74
2021/09/29 00:07:08;;;;;;;9.02;8.07;;;14.40;99.90;;;;;;5055484;28;20069;-74
2021/09/29 00:09:34;;;;;;;10.82;7.78;;;14.30;99.90;;;;;;5056206;28;20124;-74
2021/09/29 00:11:59;;;;;;;12.65;7.97;;;14.30;99.90;;;;;;5056398;28;20029;-74
2021/09/29 00:14:26;;;;;;;11.95;8.35;;;14.20;99.90;;;;;;5056133;28;20389;-73
2021/09/29 00:16:51;;;;;;;9.85;8.85;;;14.10;99.90;;;;;;5055800;28;20025;-74
2021/09/29 00:19:17;;;;;;;11.60;8.90;;;14.10;99.90;;;;;;5055502;28;20047;-73
2021/09/29 00:21:43;;;;;;;12.07;8.82;;;14.10;99.90;;;;;;5055464;28;20013;-74
2021/09/29 00:24:09;;;;;;;11.20;8.20;;;14.10;99.90;;;;;;5055558;28;20071;-74
2021/09/29 00:26:34;;;;;;;11.48;8.82;;;14.00;99.90;;;;;;5055074;28;20035;-74
2021/09/29 00:29:00;;;;;;;12.75;7.45;;;14.10;99.90;;;;;;5055310;28;20029;-74
2021/09/29 00:34:06;;;;;;;9.15;8.00;;;14.40;99.90;;;;;;5055497;28;20017;-74
2021/09/29 00:36:33;;;;;;;12.35;8.82;;;14.40;99.90;;;;;;5054611;28;20078;-74
2021/09/29 00:38:58;;;;;;;12.65;8.55;;;14.30;99.90;;;;;;5054173;28;20025;-73
2021/09/29 00:41:24;;;;;;;11.75;7.97;;;14.20;99.90;;;;;;5053260;28;20056;-73
2021/09/29 00:43:50;;;;;;;8.77;7.80;;;14.10;99.90;;;;;;5054026;28;20033;-73
2021/09/29 00:46:15;;;;;;;9.00;8.10;;;14.10;99.90;;;;;;5055167;28;20060;-73
2021/09/29 00:48:41;;;;;;;17.42;8.88;;;14.00;99.90;;;;;;5058486;28;20021;-73
2021/09/29 00:51:09;;;;;;;11.15;7.95;;;14.00;99.90;;;;;;5075549;28;20039;-73
2021/09/29 00:53:34;;;;;;;13.80;8.48;;;14.00;99.90;;;;;;5078711;28;20009;-73
2021/09/29 00:56:00;;;;;;;13.25;9.10;;;13.90;99.90;;;;;;5078828;28;20028;-73
2021/09/29 00:58:26;;;;;;;14.85;7.90;;;13.90;99.90;;;;;;5058526;28;20099;-74
2021/09/29 01:00:51;;;;;;;10.60;7.50;;;13.90;99.90;;;;;;5053606;28;20021;-74
2021/09/29 01:03:17;;;;;;;10.65;9.43;;;14.00;99.90;;;;;;5054947;28;20021;-74
2021/09/29 01:05:46;;;;;;;8.88;7.47;;;13.90;99.90;;;;;;5055344;28;20033;-73
2021/09/29 01:08:14;;;;;;;8.95;8.05;;;13.90;99.90;;;;;;5054807;28;20025;-74
2021/09/29 01:10:56;;;;;;;8.88;7.78;;;13.80;99.90;;;;;;5053884;28;20025;-73
2021/09/29 01:13:34;;;;;;;11.35;8.93;;;13.80;99.90;;;;;;5059271;28;20021;-73
2021/09/29 01:16:05;;;;;;;11.45;8.15;;;13.70;99.90;;;;;;5055883;28;20017;-74
2021/09/29 01:18:38;;;;;;;10.90;7.22;;;13.80;99.90;;;;;;5070383;28;20025;-77
2021/09/29 01:21:07;;;;;;;8.35;7.55;;;13.70;99.90;;;;;;5070896;28;20379;-74
2021/09/29 01:24:01;;;;;;;10.35;7.97;;;13.70;99.90;;;;;;5053316;28;20078;-73
2021/09/29 01:26:30;;;;;;;8.85;7.18;;;13.70;99.90;;;;;;5053389;28;20104;-72
2021/09/29 01:29:00;;;;;;;11.90;9.15;;;13.70;99.90;;;;;;5053198;28;20021;-73
2021/09/29 01:31:27;;;;;;;9.00;8.02;;;13.80;99.90;;;;;;5053180;28;20028;-73
2021/09/29 01:33:53;;;;;;;8.98;7.85;;;13.70;99.90;;;;;;5053127;28;20027;-73
2021/09/29 01:36:21;;;;;;;10.68;7.95;;;13.70;99.90;;;;;;5062743;28;20036;-73
2021/09/29 01:38:50;;;;;;;9.38;8.30;;;13.60;99.90;;;;;;5052717;28;20055;-73
2021/09/29 01:41:16;;;;;;;9.05;7.75;;;13.60;99.90;;;;;;5052983;28;20064;-72
2021/09/29 01:43:41;;;;;;;9.75;7.45;;;13.60;99.90;;;;;;5051603;28;20054;-73
2021/09/29 01:46:07;;;;;;;8.45;6.70;;;13.60;99.90;;;;;;5051742;28;20078;-73
2021/09/29 01:48:40;;;;;;;8.20;6.90;;;13.60;99.90;;;;;;5053023;28;20044;-74
2021/09/29 01:51:06;;;;;;;8.63;6.30;;;13.60;99.90;;;;;;5053180;28;20013;-74
2021/09/29 01:53:33;;;;;;;9.07;6.47;;;13.60;99.90;;;;;;5052598;28;20032;-73
2021/09/29 01:55:59;;;;;;;10.88;7.53;;;13.60;99.90;;;;;;5052201;28;20082;-73
2021/09/29 01:58:25;;;;;;;7.97;6.53;;;13.70;99.90;;;;;;5052812;28;20035;-73
2021/09/29 02:00:50;;;;;;;9.10;6.82;;;13.90;99.90;;;;;;5052485;28;20021;-74
2021/09/29 02:03:21;;;;;;;7.72;7.03;;;13.90;99.90;;;;;;5052782;28;20504;-73
2021/09/29 02:05:50;;;;;;;9.13;7.33;;;13.80;99.90;;;;;;5051561;28;20516;-74
2021/09/29 02:08:15;;;;;;;7.57;6.88;;;13.80;99.90;;;;;;5052751;28;20298;-73
2021/09/29 02:10:41;;;;;;;10.07;6.68;;;13.80;99.90;;;;;;5052681;28;20021;-74
2021/09/29 02:13:06;;;;;;;8.02;7.03;;;13.80;99.90;;;;;;5052582;28;20098;-73
2021/09/29 02:15:32;;;;;;;10.80;6.53;;;13.80;99.90;;;;;;5053155;28;20423;-73
2021/09/29 02:17:58;;;;;;;9.02;6.82;;;13.80;99.90;;;;;;5052841;28;20028;-73
2021/09/29 02:20:23;;;;;;;6.75;5.75;;;13.90;99.90;;;;;;5052805;28;20032;-73
2021/09/29 02:22:49;;;;;;;8.05;6.13;;;14.10;99.90;;;;;;5052992;28;20564;-73
2021/09/29 02:25:15;;;;;;;6.97;6.32;;;14.00;99.90;;;;;;5053125;28;20397;-74
2021/09/29 02:27:41;;;;;;;9.45;8.13;;;14.00;99.90;;;;;;5053169;28;20086;-73
2021/09/29 02:30:09;;;;;;;9.23;7.18;;;13.90;99.90;;;;;;5053366;28;20040;-73
2021/09/29 02:32:37;;;;;;;7.38;6.25;;;13.80;99.90;;;;;;5072533;28;20070;-75
2021/09/29 02:35:04;;;;;;;6.55;5.97;;;13.80;99.90;;;;;;5076558;28;20009;-76
2021/09/29 02:37:30;;;;;;;6.32;5.15;;;13.80;99.90;;;;;;5057923;28;20100;-74
2021/09/29 02:39:55;;;;;;;8.77;6.22;;;13.80;99.90;;;;;;5052860;28;20049;-74
2021/09/29 02:42:21;;;;;;;7.07;6.38;;;13.80;99.90;;;;;;5052404;28;20037;-75
2021/09/29 02:44:47;;;;;;;6.13;5.22;;;13.90;99.90;;;;;;5052206;28;20075;-73
2021/09/29 02:47:12;;;;;;;6.53;4.95;;;14.00;99.90;;;;;;5052065;28;20104;-73
2021/09/29 02:49:38;;;;;;;8.07;5.13;;;14.00;99.90;;;;;;5052104;28;20029;-71
2021/09/29 02:52:04;;;;;;;5.40;4.90;;;14.10;99.90;;;;;;5052943;28;20033;-73
2021/09/29 02:54:29;;;;;;;5.20;4.68;;;14.10;99.90;;;;;;5056465;28;20017;-73
2021/09/29 02:56:55;;;;;;;5.50;5.00;;;14.10;99.90;;;;;;5069043;28;20036;-72
2021/09/29 02:59:21;;;;;;;5.72;4.75;;;14.20;99.90;;;;;;5066788;28;20017;-73
2021/09/29 03:01:46;;;;;;;4.70;4.30;;;14.20;99.90;;;;;;5062628;28;20033;-73
2021/09/29 03:04:12;;;;;;;7.93;5.05;;;14.20;99.90;;;;;;5059555;28;20139;-73
2021/09/29 03:06:38;;;;;;;8.02;4.40;;;14.20;99.90;;;;;;5056552;28;20079;-72
2021/09/29 03:09:04;;;;;;;5.85;4.90;;;14.20;99.90;;;;;;5056252;28;20093;-73
2021/09/29 03:11:29;;;;;;;4.70;4.30;;;14.20;99.90;;;;;;5069638;22;20048;-73
2021/09/29 03:13:55;;;;;;;7.85;4.85;;;14.20;99.90;;;;;;5055578;28;20044;-74
2021/09/29 03:16:21;;;;;;;5.15;4.32;;;14.20;99.90;;;;;;5059604;28;20040;-74
2021/09/29 03:18:49;;;;;;;4.78;4.22;;;14.20;99.90;;;;;;5054225;28;20499;-73
2021/09/29 03:21:16;;;;;;;5.95;4.43;;;14.10;99.90;;;;;;5055478;28;20044;-74
2021/09/29 03:23:42;;;;;;;6.55;5.80;;;14.00;99.90;;;;;;5056294;28;20033;-74
2021/09/29 03:26:08;;;;;;;5.82;5.03;;;13.90;99.90;;;;;;5055493;28;20029;-73
2021/09/29 03:28:33;;;;;;;6.80;5.13;;;14.00;99.90;;;;;;5055331;28;20025;-73
2021/09/29 03:30:59;;;;;;;5.40;4.78;;;14.00;99.90;;;;;;5055205;28;20037;-73
2021/09/29 03:33:25;;;;;;;7.63;4.45;;;14.00;99.90;;;;;;5055579;28;20147;-74
2021/09/29 03:35:50;;;;;;;4.72;4.32;;;14.00;99.90;;;;;;5055563;28;20028;-73
2021/09/29 03:38:16;;;;;;;7.78;4.75;;;14.00;99.90;;;;;;5055098;28;20021;-73
2021/09/29 03:40:41;;;;;;;6.47;4.85;;;14.00;99.90;;;;;;5054791;28;20021;-73
2021/09/29 03:43:07;;;;;;;4.57;4.18;;;13.90;99.90;;;;;;5054921;28;20538;-73
2021/09/29 03:45:33;;;;;;;10.77;4.28;;;13.80;99.90;;;;;;5055065;28;20052;-73
2021/09/29 03:47:58;;;;;;;4.68;4.20;;;13.80;99.90;;;;;;5054641;28;20040;-73
2021/09/29 03:50:24;;;;;;;6.47;4.28;;;13.70;99.90;;;;;;5054742;28;20021;-73
2021/09/29 03:52:49;;;;;;;10.85;4.90;;;13.70;99.90;;;;;;5054829;28;20049;-75
2021/09/29 03:55:15;;;;;;;6.85;4.60;;;13.70;99.90;;;;;;5054401;28;20078;-74
2021/09/29 03:57:41;;;;;;;6.10;5.50;;;13.70;99.90;;;;;;5054605;28;20028;-74
2021/09/29 04:00:09;;;;;;;5.88;4.78;;;13.70;99.90;;;;;;5054579;28;20036;-73
2021/09/29 04:02:36;;;;;;;6.43;4.93;;;13.70;99.90;;;;;;5065538;28;20039;-73
2021/09/29 04:05:02;;;;;;;7.75;4.70;;;13.70;99.90;;;;;;5072322;28;20029;-72
2021/09/29 04:07:28;;;;;;;5.28;4.75;;;13.80;99.90;;;;;;5058670;28;20024;-73
2021/09/29 04:09:53;;;;;;;6.57;5.90;;;13.70;99.90;;;;;;5056505;28;20036;-74
2021/09/29 04:12:21;;;;;;;5.57;4.90;;;13.80;99.90;;;;;;5056414;28;20078;-74
2021/09/29 04:14:48;;;;;;;4.32;3.92;;;13.80;99.90;;;;;;5054659;28;20017;-73
2021/09/29 04:17:13;;;;;;;6.72;5.05;;;13.90;99.90;;;;;;5055804;28;20535;-73
2021/09/29 04:19:39;;;;;;;5.07;4.40;;;13.90;99.90;;;;;;5053962;28;20033;-74
2021/09/29 04:22:10;;;;;;;6.47;4.53;;;13.90;99.90;;;;;;5054507;28;20481;-73
2021/09/29 04:24:39;;;;;;;6.13;4.50;;;13.90;99.90;;;;;;5053143;28;20496;-72
2021/09/29 04:27:07;;;;;;;6.57;4.32;;;13.90;99.90;;;;;;5052803;28;20033;-72
2021/09/29 04:29:32;;;;;;;4.80;4.00;;;14.00;99.90;;;;;;5054110;28;20036;-74
2021/09/29 04:31:58;;;;;;;8.15;4.10;;;13.90;99.90;;;;;;5054245;28;20025;-73
2021/09/29 04:34:24;;;;;;;6.15;4.43;;;13.90;99.90;;;;;;5054752;28;20032;-74
2021/09/29 04:36:49;;;;;;;5.60;4.05;;;13.90;99.90;;;;;;5053262;28;20491;-73
2021/09/29 04:39:15;;;;;;;4.53;4.10;;;13.90;99.90;;;;;;5054113;28;20042;-73
2021/09/29 04:41:41;;;;;;;5.32;4.22;;;14.00;99.90;;;;;;5054907;28;20029;-74
2021/09/29 04:44:07;;;;;;;9.63;4.13;;;14.00;99.90;;;;;;5054309;28;20029;-73
2021/09/29 04:46:32;;;;;;;7.65;4.13;;;14.00;99.90;;;;;;5054897;28;20531;-73
2021/09/29 04:48:58;;;;;;;5.10;3.85;;;13.90;99.90;;;;;;5056536;28;20021;-73
2021/09/29 04:51:24;;;;;;;6.43;3.75;;;13.90;99.90;;;;;;5058906;28;20513;-73
2021/09/29 04:53:49;;;;;;;5.50;2.97;;;13.80;99.90;;;;;;5055463;28;20029;-74
2021/09/29 04:56:15;;;;;;;4.93;3.38;;;13.90;99.90;;;;;;5053694;28;20029;-74
2021/09/29 04:58:43;;;;;;;3.30;2.97;;;13.80;99.90;;;;;;5055274;28;20025;-73
2021/09/29 05:01:10;;;;;;;6.57;3.38;;;13.80;99.90;;;;;;5057121;28;20040;-75
2021/09/29 05:03:36;;;;;;;6.72;3.05;;;13.80;99.90;;;;;;5056844;28;20029;-74
2021/09/29 05:06:02;;;;;;;5.00;2.90;;;13.70;99.90;;;;;;5054825;28;20064;-72
2021/09/29 05:08:29;;;;;;;5.18;3.85;;;13.70;99.90;;;;;;5054265;28;20051;-73
2021/09/29 05:11:14;;;;;;;5.32;3.35;;;13.60;99.90;;;;;;5053360;28;20029;-73
2021/09/29 05:13:40;;;;;;;6.30;3.90;;;13.60;99.90;;;;;;5054271;28;20431;-74
2021/09/29 05:16:06;;;;;;;4.82;3.33;;;13.60;99.90;;;;;;5053660;28;20021;-73
2021/09/29 05:18:31;;;;;;;10.02;3.15;;;13.60;99.90;;;;;;5053288;28;20021;-73
2021/09/29 05:20:57;;;;;;;5.85;3.80;;;13.60;99.90;;;;;;5053995;28;20029;-73
2021/09/29 05:23:23;;;;;;;4.75;2.67;;;13.50;99.90;;;;;;5053940;28;20021;-74
2021/09/29 05:25:49;;;;;;;4.00;3.40;;;13.50;99.90;;;;;;5053601;28;20094;-75
2021/09/29 05:28:17;;;;;;;3.72;3.40;;;13.50;99.90;;;;;;5054002;28;20381;-74
2021/09/29 05:30:44;;;;;;;4.65;3.38;;;13.60;99.90;;;;;;5052007;28;20020;-74
2021/09/29 05:33:10;;;;;;;7.53;3.72;;;13.60;99.90;;;;;;5053550;28;20017;-73
2021/09/29 05:35:36;;;;;;;5.82;4.03;;;13.60;99.90;;;;;;5052188;28;20025;-75
2021/09/29 05:38:02;;;;;;;4.82;3.05;;;13.60;99.90;;;;;;5053077;28;20078;-73
2021/09/29 05:40:28;;;;;;;9.20;5.40;;;13.60;99.90;;;;;;5053860;28;20032;-74
2021/09/29 05:42:54;;;;;;;4.95;3.60;;;13.60;99.90;;;;;;5053565;28;20025;-75
2021/09/29 05:45:19;;;;;;;5.68;3.35;;;13.60;99.90;;;;;;5053004;28;20055;-74
2021/09/29 05:47:45;;;;;;;4.18;3.00;;;13.60;99.90;;;;;;5051599;28;20507;-73
2021/09/29 05:50:11;;;;;;;6.63;4.50;;;13.60;99.90;;;;;;5053275;28;20032;-73
2021/09/29 05:52:37;;;;;;;6.22;2.90;;;13.70;99.90;;;;;;5052826;28;20021;-73
2021/09/29 05:55:04;;;;;;;4.65;2.92;;;13.70;99.90;;;;;;5052658;28;20032;-73
2021/09/29 05:57:29;;;;;;;5.15;2.67;;;13.60;99.90;;;;;;5053631;28;20025;-73
2021/09/29 05:59:56;;;;;;;4.90;2.95;;;13.60;99.90;;;;;;5055620;28;20048;-74
2021/09/29 06:02:21;;;;;;;8.18;3.20;;;13.60;99.90;;;;;;5051123;28;20055;-73
2021/09/29 06:04:47;;;;;;;8.23;3.55;;;13.60;99.90;;;;;;5053332;28;20021;-73
2021/09/29 06:07:15;;;;;;;6.13;3.13;;;13.70;99.90;;;;;;5052819;28;20025;-72
2021/09/29 06:09:41;;;;;;;5.13;3.38;;;13.90;99.90;;;;;;5052960;28;20465;-72
2021/09/29 06:12:07;;;;;;;6.18;3.85;;;14.00;99.90;;;;;;5052588;28;20032;-74
2021/09/29 06:14:33;;;;;;;6.18;3.00;;;14.10;99.90;;;;;;5053035;28;20025;-73
2021/09/29 06:17:11;;;;;;;3.53;3.13;;;14.10;99.90;;;;;;5053242;28;20052;-74
2021/09/29 06:19:38;;;;;;;3.65;3.22;;;14.30;99.90;;;;;;5053281;28;20389;-73
2021/09/29 06:22:06;;;;;;;4.35;3.20;;;14.30;99.90;;;;;;5053004;28;20056;-74
2021/09/29 06:24:31;;;;;;;9.48;3.67;;;14.50;99.90;;;;;;5052945;28;20029;-73
2021/09/29 06:26:57;;;;;;;4.35;3.42;;;14.60;99.90;;;;;;5052607;28;20481;-73
2021/09/29 06:29:22;;;;;;;6.45;3.78;;;14.80;99.90;;;;;;5053075;28;20028;-75
2021/09/29 06:31:48;;;;;;;12.43;3.05;;;15.00;99.90;;;;;;5053472;28;20026;-74
2021/09/29 06:34:13;;;;;;;6.45;2.85;;;15.10;99.90;;;;;;5053348;28;20116;-73
2021/09/29 06:36:39;;;;;;;3.97;2.70;;;15.10;99.90;;;;;;5052585;28;20025;-73
2021/09/29 06:39:05;;;;;;;4.68;2.97;;;15.00;99.90;;;;;;5051990;28;20063;-73
2021/09/29 06:41:30;;;;;;;8.25;3.63;;;15.00;99.90;;;;;;5055522;28;20075;-73
2021/09/29 06:43:56;;;;;;;4.10;2.97;;;14.90;99.90;;;;;;5058710;28;20484;-73
2021/09/29 06:46:21;;;;;;;5.60;3.15;;;14.80;99.90;;;;;;5057918;28;20024;-73
2021/09/29 06:48:47;;;;;;;4.22;2.38;;;14.90;99.90;;;;;;5059634;28;20048;-74
2021/09/29 06:51:12;;;;;;;5.57;2.75;;;14.90;99.90;;;;;;5063308;28;20052;-73
2021/09/29 06:53:39;;;;;;;5.93;2.75;;;14.90;99.90;;;;;;5060522;28;20021;-73
2021/09/29 06:56:05;;;;;;;2.90;2.20;;;15.00;99.90;;;;;;5059349;28;20452;-73
2021/09/29 06:58:32;;;;;;;3.72;2.78;;;15.10;99.90;;;;;;5058286;28;20021;-74
2021/09/29 07:00:57;;;;;;;4.68;2.60;;;15.20;99.90;;;;;;5058337;28;20028;-74
2021/09/29 07:03:24;;;;;;;8.02;2.55;;;15.30;99.90;;;;;;5056791;28;20025;-73
2021/09/29 07:05:50;;;;;;;3.50;2.35;;;15.40;99.90;;;;;;5058176;28;20067;-73
2021/09/29 07:08:15;;;;;;;9.50;2.63;;;15.40;99.90;;;;;;5058483;28;20025;-74
2021/09/29 07:10:41;;;;;;;4.55;2.03;;;15.50;99.90;;;;;;5062232;28;20040;-73
2021/09/29 07:13:07;;;;;;;4.70;2.30;;;15.70;99.90;;;;;;5062639;28;20048;-73
2021/09/29 07:15:34;;;;;;;6.88;2.08;;;15.80;99.90;;;;;;5060035;28;20022;-73
2021/09/29 07:18:00;;;;;;;3.45;2.00;;;15.90;99.90;;;;;;5059886;28;20043;-73
2021/09/29 07:20:27;;;;;;;3.20;1.98;;;15.90;99.90;;;;;;5058907;28;20032;-73
2021/09/29 07:22:54;;;;;;;6.18;2.90;;;16.00;99.90;;;;;;5058641;28;20032;-73
2021/09/29 07:25:20;;;;;;;6.15;1.98;;;16.00;99.90;;;;;;5058562;28;20094;-73
2021/09/29 07:27:46;;;;;;;3.10;1.60;;;16.00;99.90;;;;;;5059350;28;20033;-73
2021/09/29 07:30:12;;;;;;;4.45;2.35;;;16.00;99.90;;;;;;5057411;28;20029;-73
2021/09/29 07:32:38;;;;;;;5.35;2.45;;;16.20;99.90;;;;;;5057156;28;20083;-74
2021/09/29 07:35:04;;;;;;;3.58;1.73;;;16.30;99.90;;;;;;5056797;28;20028;-74
2021/09/29 07:37:29;;;;;;;4.90;1.40;;;16.50;99.90;;;;;;5056461;28;20028;-74
2021/09/29 07:39:55;;;;;;;3.00;1.30;;;16.50;99.90;;;;;;5059963;28;20029;-74
2021/09/29 07:42:21;;;;;;;2.83;1.25;;;16.50;99.90;;;;;;5056621;28;20037;-75
2021/09/29 07:44:46;;;;;;;3.75;1.42;;;16.50;99.90;;;;;;5056585;28;20032;-74
2021/09/29 07:47:12;;;;;;;1.98;1.10;;;16.70;99.90;;;;;;5055829;28;20037;-73
2021/09/29 07:49:38;;;;;;;2.28;1.20;;;16.80;99.90;;;;;;5056412;28;20036;-73
2021/09/29 07:52:04;;;;;;;4.90;1.45;;;16.90;99.90;;;;;;5054009;28;20025;-74
2021/09/29 07:54:30;;;;;;;7.05;1.60;;;17.10;99.90;;;;;;5054649;28;20021;-73
2021/09/29 07:56:55;;;;;;;4.13;1.33;;;17.40;99.90;;;;;;5055325;28;20047;-73
2021/09/29 07:59:22;;;;;;;2.28;1.25;;;17.50;99.90;;;;;;5055293;28;20051;-73
2021/09/29 08:01:49;;;;;;;4.80;1.10;;;17.40;99.90;;;;;;5055144;28;20025;-73
2021/09/29 08:04:19;;;;;;;2.38;0.95;;;17.50;99.90;;;;;;5055029;28;20463;-74
2021/09/29 08:06:45;;;;;;;2.67;1.50;;;17.40;99.90;;;;;;5053820;28;20029;-74
2021/09/29 08:09:10;;;;;;;1.52;1.00;;;17.30;99.90;;;;;;5055433;28;20084;-74
2021/09/29 08:11:36;;;;;;;4.35;1.20;;;17.20;99.90;;;;;;5055226;28;20120;-74
2021/09/29 08:14:02;;;;;;;2.45;1.25;;;17.20;99.90;;;;;;5055092;28;20017;-74
2021/09/29 08:16:27;;;;;;;2.05;1.00;;;17.20;99.90;;;;;;5054660;28;20474;-73
2021/09/29 08:18:53;;;;;;;2.13;0.93;;;17.20;99.90;;;;;;5054506;28;20082;-73
2021/09/29 08:21:23;;;;;;;3.92;1.08;;;17.30;99.90;;;;;;5054703;28;20112;-73
2021/09/29 08:23:52;;;;;;;2.42;1.38;;;17.30;99.90;;;;;;5055558;28;20396;-75
2021/09/29 08:32:05;;;;;;;1.70;0.88;;;17.60;99.90;;;;;;5055305;28;20033;-73
2021/09/29 08:35:23;;;;;;;2.60;0.93;;;17.50;99.90;;;;;;5055693;28;20028;-73
2021/09/29 08:42:41;;;;;;;2.50;0.80;;;17.50;99.90;;;;;;5055196;28;20063;-74
2021/09/29 08:45:19;;;;;;;2.42;0.90;;;17.70;99.90;;;;;;5055107;28;20036;-75
2021/09/29 08:50:39;;;;;;;5.15;1.08;;;17.80;99.90;;;;;;5054648;28;20442;-75
2021/09/29 08:53:26;;;;;;;0.88;0.52;;;17.90;99.90;;;;;;5054332;28;20025;-74
2021/09/29 09:17:39;;;;;;;3.55;0.95;;;18.00;99.90;;;;;;5053571;28;20028;-73
2021/09/29 09:20:26;;;;;;;2.42;1.00;;;17.90;99.90;;;;;;5053415;28;20028;-73
2021/09/29 09:22:55;;;;;;;4.80;0.85;;;18.00;99.90;;;;;;5053046;28;20059;-74
2021/09/29 09:25:33;;;;;;;2.00;0.70;;;18.10;99.90;;;;;;5054225;28;20484;-75
2021/09/29 09:27:59;;;;;;;3.13;0.73;;;18.10;99.90;;;;;;5051774;28;20055;-74
2021/09/29 09:30:33;;;;;;;2.80;0.95;;;18.20;99.90;;;;;;5053152;28;20074;-74
2021/09/29 09:32:59;;;;;;;1.75;0.82;;;18.40;99.90;;;;;;5053301;28;20032;-74
2021/09/29 09:35:29;;;;;;;1.92;0.70;;;18.60;99.90;;;;;;5052766;28;20025;-74
2021/09/29 09:37:59;;;;;;;2.05;0.70;;;18.60;99.90;;;;;;5052840;28;20065;-73
2021/09/29 09:40:31;;;;;;;4.28;0.80;;;18.90;99.90;;;;;;5053584;28;20024;-73
2021/09/29 09:42:57;;;;;;;1.42;0.70;;;19.00;99.90;;;;;;5051964;28;20447;-74
2021/09/29 09:45:42;;;;;;;1.30;1.17;;;19.10;99.90;;;;;;5053080;28;20025;-72
2021/09/29 09:48:16;;;;;;;3.30;1.08;;;19.40;99.90;;;;;;5056716;28;20070;-74
2021/09/29 09:50:42;;;;;;;2.65;0.82;;;19.60;99.90;;;;;;5056809;28;20036;-73
2021/09/29 09:53:12;;;;;;;2.60;0.73;;;19.60;99.90;;;;;;5059478;28;20104;-74
2021/09/29 09:55:38;;;;;;;4.03;0.82;;;19.80;99.90;;;;;;5058724;28;20505;-74
2021/09/29 09:58:04;;;;;;;1.50;0.55;;;19.80;99.90;;;;;;5058292;28;20055;-73
2021/09/29 10:00:32;;;;;;;3.03;0.90;;;19.70;99.90;;;;;;5053232;28;20120;-75
2021/09/29 10:03:00;;;;;;;2.03;0.77;;;19.40;99.90;;;;;;5051574;28;20061;-74
2021/09/29 10:05:27;;;;;;;2.20;0.63;;;19.30;99.90;;;;;;5053133;28;20040;-74
2021/09/29 10:07:53;;;;;;;3.53;0.60;;;19.20;99.90;;;;;;5036569;28;20029;-73
2021/09/29 10:27:56;;;;;;;2.63;0.60;;;20.90;99.90;;;;;;5052174;28;20082;-73
2021/09/29 10:30:34;;;;;;;3.00;0.70;;;21.30;98.70;;;;;;5051832;28;20026;-73
2021/09/29 10:33:02;;;;;;;2.05;0.70;;;21.20;97.50;;;;;;5051423;28;20104;-73
2021/09/29 10:46:16;;;;;;;1.95;0.77;;;19.80;98.20;;;;;;5052142;28;20068;-74
2021/09/29 10:48:55;;;;;;;3.25;0.70;;;19.70;98.40;;;;;;5051305;28;20032;-74
2021/09/29 10:51:52;;;;;;;5.28;1.20;;;19.60;98.60;;;;;;5050774;28;20025;-75
2021/09/29 11:05:47;;;;;;;2.40;0.73;;;19.10;99.90;;;;;;5052425;28;20100;-73
2021/09/29 11:30:17;;;;;;;1.52;0.50;;;19.70;99.50;;;;;;5056647;28;19912;-73
2021/09/29 11:38:15;;;;;;;1.63;0.77;;;19.90;99.30;;;;;;5057277;28;20059;-73
2021/09/29 12:10:50;;;;;;;1.60;0.60;;;20.40;97.40;;;;;;5034202;28;20086;-74
2021/09/29 12:13:15;;;;;;;2.85;0.57;;;20.60;97.20;;;;;;5054808;28;20024;-75
2021/09/29 12:15:45;;;;;;;1.08;0.43;;;20.90;97.10;;;;;;5053867;28;20384;-75
2021/09/29 12:18:13;;;;;;;1.13;0.45;;;21.00;96.10;;;;;;5054957;28;20033;-74
2021/09/29 12:20:50;;;;;;;0.93;0.40;;;20.80;96.00;;;;;;5054950;28;20627;-75
2021/09/29 12:23:17;;;;;;;1.58;0.55;;;20.80;96.10;;;;;;5056298;28;20032;-74
2021/09/29 12:26:03;;;;;;;2.10;0.50;;;20.90;95.90;;;;;;5054948;28;20025;-74
2021/09/29 12:36:41;;;;;;;2.30;0.70;;;20.80;95.80;;;;;;5054043;28;20128;-74
2021/09/29 12:39:21;;;;;;;1.20;0.40;;;20.80;95.90;;;;;;5054848;28;20053;-76
2021/09/29 12:41:52;;;;;;;4.53;1.10;;;21.10;95.60;;;;;;5054281;28;20050;-76
2021/09/29 12:44:18;;;;;;;1.73;0.38;;;21.30;95.60;;;;;;5053958;28;20124;-74
2021/09/29 12:47:11;;;;;;;2.67;0.98;;;21.50;94.80;;;;;;5056039;28;20021;-73
2021/09/29 12:49:36;;;;;;;3.33;0.60;;;21.30;95.00;;;;;;5055140;28;20021;-73
2021/09/29 12:52:12;;;;;;;1.23;0.45;;;21.10;95.40;;;;;;5054460;28;20423;-75
2021/09/29 12:54:48;;;;;;;1.33;0.47;;;21.00;95.50;;;;;;5055211;28;20036;-73
2021/09/29 12:57:13;;;;;;;0.80;0.35;;;20.70;96.00;;;;;;5053085;28;20049;-73
2021/09/29 12:59:39;;;;;;;1.55;0.50;;;20.60;96.00;;;;;;5054045;28;20029;-76
2021/09/29 13:02:04;;;;;;;0.85;0.50;;;20.60;96.60;;;;;;5054269;28;20025;-74
2021/09/29 13:04:30;;;;;;;1.58;0.75;;;20.50;96.10;;;;;;5054613;28;20029;-74
2021/09/29 13:06:55;;;;;;;1.05;0.50;;;20.50;96.30;;;;;;5057414;28;20502;-74
2021/09/29 13:09:21;;;;;;;1.67;0.47;;;20.50;96.30;;;;;;5060932;28;20028;-74
2021/09/29 13:11:46;;;;;;;3.30;0.40;;;20.40;96.50;;;;;;5063197;28;20086;-74
2021/09/29 13:14:12;;;;;;;1.05;0.40;;;20.30;97.00;;;;;;5063770;28;20017;-74
2021/09/29 13:16:38;;;;;;;2.83;0.77;;;20.20;97.10;;;;;;5063874;28;20037;-74
2021/09/29 13:19:10;;;;;;;5.65;0.60;;;20.20;97.20;;;;;;5055233;28;20025;-73
2021/09/29 13:24:09;;;;;;;1.55;0.57;;;20.20;97.40;;;;;;5054281;28;20036;-74
2021/09/29 13:37:22;;;;;;;1.90;0.70;;;20.00;98.00;;;;;;5053401;28;20131;-74
2021/09/29 13:39:50;;;;;;;1.63;0.50;;;19.90;98.80;;;;;;5055976;28;20021;-74
2021/09/29 13:42:16;;;;;;;3.00;0.60;;;19.80;99.00;;;;;;5068489;28;20031;-73
2021/09/29 13:44:42;;;;;;;2.20;0.90;;;19.50;99.90;;;;;;5067673;28;20111;-73
2021/09/29 13:47:07;;;;;;;2.97;0.90;;;19.00;99.90;;;;;;5062820;28;20033;-73
2021/09/29 13:49:33;;;;;;;1.17;0.50;;;18.50;99.90;;;;;;5058645;28;20427;-73
2021/09/29 13:51:59;;;;;;;3.17;0.80;;;18.40;99.90;;;;;;5053295;28;20085;-74
2021/09/29 13:54:26;;;;;;;2.78;1.00;;;18.10;99.90;;;;;;5053241;28;20025;-74
2021/09/29 14:00:08;;;;;;;1.02;0.38;;;17.90;99.90;;;;;;5054026;28;20062;-73
2021/09/29 14:34:41;;;;;;;1.08;0.65;;;16.00;99.90;;;;;;5053205;28;20464;-74
2021/09/29 14:37:09;;;;;;;5.13;1.13;;;15.50;99.90;;;;;;5053039;28;20035;-74
2021/09/29 14:39:35;;;;;;;2.50;0.40;;;15.40;99.90;;;;;;5051854;28;20021;-74
2021/09/29 14:42:00;;;;;;;1.00;0.40;;;15.20;99.90;;;;;;5055749;28;20028;-74
2021/09/29 14:44:29;;;;;;;1.58;0.40;;;15.10;99.90;;;;;;5054498;28;20032;-74
2021/09/29 14:46:54;;;;;;;2.70;0.63;;;15.00;99.90;;;;;;5052481;28;20043;-72
2021/09/29 14:49:20;;;;;;;0.43;0.40;;;15.10;99.90;;;;;;5052798;28;20468;-73
2021/09/29 14:51:46;;;;;;;0.55;0.40;;;15.00;99.90;;;;;;5052349;28;20017;-73
2021/09/29 14:54:11;;;;;;;1.40;0.50;;;15.00;99.90;;;;;;5052301;28;20029;-74
2021/09/29 14:56:37;;;;;;;0.60;0.38;;;15.00;99.90;;;;;;5052121;28;20393;-74
2021/09/29 14:59:04;;;;;;;0.47;0.40;;;15.00;99.90;;;;;;5051061;28;20032;-74
2021/09/29 15:01:30;;;;;;;0.47;0.40;;;15.10;99.90;;;;;;5052347;28;20021;-74
2021/09/29 15:03:58;;;;;;;1.90;0.63;;;15.10;99.90;;;;;;5055617;28;20021;-74
2021/09/29 15:06:24;;;;;;;0.75;0.50;;;15.10;99.90;;;;;;5056101;28;20023;-74
2021/09/29 15:08:50;;;;;;;2.92;0.28;;;15.00;99.90;;;;;;5055800;28;20083;-73
2021/09/29 15:11:16;;;;;;;0.30;0.30;;;15.10;99.90;;;;;;5080454;22;20045;-75
2021/09/29 15:14:18;;;;;;;0.35;0.30;;;15.10;99.90;;;;;;5058559;28;20376;-74
2021/09/29 15:16:41;;;;;;;0.70;0.50;;;15.10;99.90;;;;;;5056706;28;20136;-75
2021/09/29 15:19:25;;;;;;;0.80;0.60;;;15.00;99.90;;;;;;5059384;28;20032;-76
2021/09/29 15:24:44;;;;;;;0.40;0.30;;;15.00;99.90;;;;;;5057571;28;20076;-74
2021/09/29 15:49:43;;;;;;;0.70;0.45;;;14.70;99.90;;;;;;5058768;28;20021;-75
2021/09/29 15:52:08;;;;;;;0.50;0.40;;;14.70;99.90;;;;;;5056953;28;20033;-75
2021/09/29 15:54:51;;;;;;;0.50;0.30;;;14.60;99.90;;;;;;5056862;28;20029;-74
2021/09/29 15:57:31;;;;;;;0.90;0.40;;;14.60;99.90;;;;;;5056196;28;20021;-74
2021/09/29 16:00:08;;;;;;;0.70;0.40;;;14.60;99.90;;;;;;5056633;28;20045;-75
2021/09/29 16:02:43;;;;;;;1.50;0.40;;;14.70;99.90;;;;;;5056056;28;20274;-74
2021/09/29 16:07:48;;;;;;;0.93;0.40;;;14.80;99.90;;;;;;5055651;28;20395;-74
2021/09/29 16:13:28;;;;;;;0.75;0.50;;;14.80;99.90;;;;;;5057068;28;20033;-73
2021/09/29 16:16:08;;;;;;;2.28;0.65;;;14.70;99.90;;;;;;5056164;28;20032;-74
2021/09/29 16:37:49;;;;;;;1.13;0.50;;;14.40;99.90;;;;;;5056873;28;20032;-74
2021/09/29 16:40:17;;;;;;;1.77;0.90;;;14.50;99.90;;;;;;5055479;28;20442;-74
2021/09/29 16:42:47;;;;;;;0.95;0.60;;;14.50;99.90;;;;;;5057081;28;20037;-73
2021/09/29 16:45:15;;;;;;;0.98;0.60;;;14.40;99.90;;;;;;5056418;28;20017;-74
2021/09/29 16:47:41;;;;;;;1.40;0.60;;;14.40;99.90;;;;;;5056277;28;20021;-75
2021/09/29 16:50:08;;;;;;;1.73;0.88;;;14.40;99.90;;;;;;5055542;28;20021;-74
2021/09/29 16:55:04;;;;;;;0.88;0.60;;;14.40;99.90;;;;;;5055151;28;20036;-74